^^
Anthem North Phoenix Station Historical Data
 
Daily Summary for February 23, 2019 Units:  English    Metric   Both
Daily Weekly Monthly Yearly Custom
  Current: High: Low: Average:
Temperature: 53.7 °F 54.9 °F 31.4 °F 40.5 °F
Dew Point: 23.0 °F 34.6 °F 21.1 °F 27.5 °F
Humidity: 30% 92% 28% 64%
Wind Speed: 0.8mph 5.2mph 0.0mph 1.6mph
Wind Gust: 1.2mph 9.2mph - -
WindSE - - SE
Pressure: 30.39 in 30.49 in 30.28 in -
Precipitation: 0.00 in      
Historical Graphs
 
 
Tabular Data for February 23, 2019
Time Temperature Dew Point Pressure Wind Wind Speed Wind Gust Humidity Rainfall Rate (Hourly)
00:04 37.0 °F 34.6 °F 30.28 in Calm     91% 0.00 in
00:09 37.1 °F 34.4 °F 30.29 in NNE 0.4 mph 1.2 mph 90% 0.00 in
00:14 37.2 °F 34.5 °F 30.28 in North 1.9 mph 2.3 mph 90% 0.00 in
00:19 37.2 °F 34.5 °F 30.29 in NNE 1.8 mph 2.3 mph 90% 0.00 in
00:24 37.2 °F 34.3 °F 30.29 in NNE 0.5 mph 2.3 mph 89% 0.00 in
00:29 37.0 °F 34.1 °F 30.29 in NE 1.0 mph 1.2 mph 89% 0.00 in
00:34 37.0 °F 34.3 °F 30.29 in Calm     90% 0.00 in
00:39 37.1 °F 34.2 °F 30.29 in Calm     89% 0.00 in
00:44 37.1 °F 34.2 °F 30.29 in Calm     89% 0.00 in
00:49 36.8 °F 33.6 °F 30.30 in Calm     88% 0.00 in
00:51 36.8 °F 33.6 °F 30.30 in Calm     88% 0.00 in
00:59 36.0 °F 33.1 °F 30.29 in Calm     89% 0.00 in
01:04 35.6 °F 32.7 °F 30.30 in ENE 0.1 mph 1.2 mph 89% 0.00 in
01:09 35.5 °F 32.9 °F 30.30 in Calm     90% 0.00 in
01:14 35.4 °F 32.8 °F 30.30 in Calm     90% 0.00 in
01:19 35.4 °F 33.0 °F 30.30 in Calm   1.0 mph 91% 0.00 in
01:24 35.6 °F 33.2 °F 30.30 in North 0.2 mph 1.2 mph 91% 0.00 in
01:29 35.5 °F 33.1 °F 30.31 in North 1.0 mph 1.2 mph 91% 0.00 in
01:34 35.2 °F 32.6 °F 30.31 in North 0.3 mph 1.2 mph 90% 0.00 in
01:39 34.8 °F 32.2 °F 30.32 in North 0.4 mph 1.2 mph 90% 0.00 in
01:44 34.6 °F 32.0 °F 30.32 in Calm     90% 0.00 in
01:48 34.5 °F 32.1 °F 30.32 in Calm     91% 0.00 in
01:54 34.3 °F 31.9 °F 30.32 in Calm     91% 0.00 in
01:55 34.3 °F 31.9 °F 30.32 in Calm     91% 0.00 in
02:09 34.1 °F 31.7 °F 30.33 in Calm     91% 0.00 in
02:14 34.4 °F 32.3 °F 30.33 in Calm     92% 0.00 in
02:19 34.3 °F 31.9 °F 30.34 in Calm     91% 0.00 in
02:22 34.3 °F 31.9 °F 30.34 in Calm     91% 0.00 in
02:28 33.9 °F 31.6 °F 30.34 in Calm     91% 0.00 in
02:39 34.2 °F 31.6 °F 30.34 in North 2.0 mph 3.5 mph 90% 0.00 in
02:44 34.3 °F 31.4 °F 30.34 in NNE 3.0 mph 3.5 mph 89% 0.00 in
02:49 34.3 °F 31.4 °F 30.34 in North 1.0 mph 3.5 mph 89% 0.00 in
02:51 34.3 °F 31.4 °F 30.34 in North 1.0 mph 3.5 mph 89% 0.00 in
02:59 35.0 °F 30.9 °F 30.34 in North 3.0 mph 3.5 mph 85% 0.00 in
03:04 35.3 °F 30.7 °F 30.34 in NNW 2.6 mph 3.5 mph 83% 0.00 in
03:09 35.0 °F 30.4 °F 30.34 in NW 1.5 mph 2.3 mph 83% 0.00 in
03:14 34.5 °F 29.9 °F 30.34 in Calm     83% 0.00 in
03:19 34.2 °F 29.6 °F 30.35 in North 0.4 mph 1.2 mph 83% 0.00 in
03:24 34.0 °F 29.1 °F 30.35 in NNE 0.3 mph 1.2 mph 82% 0.00 in
03:29 33.9 °F 29.0 °F 30.35 in NNE 0.4 mph 1.2 mph 82% 0.00 in
03:34 33.8 °F 28.9 °F 30.36 in NNE 1.2 mph 2.3 mph 82% 0.00 in
03:39 33.6 °F 28.4 °F 30.36 in NE 1.0 mph 2.3 mph 81% 0.00 in
03:44 33.6 °F 28.4 °F 30.36 in North 0.4 mph 1.2 mph 81% 0.00 in
03:49 33.3 °F 28.1 °F 30.36 in North 0.4 mph 1.2 mph 81% 0.00 in
03:54 33.2 °F 28.0 °F 30.36 in Calm     81% 0.00 in
03:59 33.0 °F 27.8 °F 30.36 in North 0.4 mph 1.2 mph 81% 0.00 in
04:04 33.2 °F 27.1 °F 30.37 in NNW 1.4 mph 2.3 mph 78% 0.00 in
04:09 33.7 °F 27.6 °F 30.37 in NNE 2.3 mph 3.5 mph 78% 0.00 in
04:14 33.4 °F 27.6 °F 30.37 in North 1.4 mph 2.3 mph 79% 0.00 in
04:19 32.8 °F 27.6 °F 30.37 in NNE 0.4 mph 2.0 mph 81% 0.00 in
04:24 32.7 °F 27.5 °F 30.37 in NNE 1.3 mph 2.3 mph 81% 0.00 in
04:29 32.7 °F 27.5 °F 30.37 in ENE 1.2 mph 2.3 mph 81% 0.00 in
04:34 32.6 °F 27.7 °F 30.37 in NNE 2.0 mph 2.3 mph 82% 0.00 in
04:39 32.6 °F 27.7 °F 30.37 in NNE 2.9 mph 3.5 mph 82% 0.00 in
04:44 32.9 °F 28.0 °F 30.38 in NE 2.7 mph 3.5 mph 82% 0.00 in
04:49 33.0 °F 28.1 °F 30.38 in North 1.6 mph 2.3 mph 82% 0.00 in
04:52 33.0 °F 28.1 °F 30.38 in North 1.6 mph 1.2 mph 82% 0.00 in
04:59 33.0 °F 28.4 °F 30.38 in NNE 1.0 mph 1.2 mph 83% 0.00 in
05:04 32.9 °F 28.3 °F 30.38 in NNE 1.0 mph 1.2 mph 83% 0.00 in
05:09 33.0 °F 28.4 °F 30.38 in NNE 1.0 mph 1.2 mph 83% 0.00 in
05:14 32.9 °F 28.0 °F 30.38 in North 1.8 mph 2.3 mph 82% 0.00 in
05:19 32.9 °F 27.7 °F 30.39 in NNE 1.8 mph 4.0 mph 81% 0.00 in
05:24 33.2 °F 27.7 °F 30.39 in North 3.0 mph 3.5 mph 80% 0.00 in
05:29 33.0 °F 28.1 °F 30.39 in North 1.7 mph 3.5 mph 82% 0.00 in
05:34 32.5 °F 27.9 °F 30.39 in NNW 1.4 mph 2.3 mph 83% 0.00 in
05:39 32.3 °F 27.4 °F 30.39 in NNE 1.4 mph 2.3 mph 82% 0.00 in
05:44 32.3 °F 27.4 °F 30.39 in NNE 1.4 mph 2.3 mph 82% 0.00 in
05:49 32.2 °F 27.3 °F 30.39 in North 0.4 mph 1.2 mph 82% 0.00 in
05:54 32.3 °F 27.1 °F 30.40 in North 0.6 mph 1.2 mph 81% 0.00 in
05:59 32.4 °F 26.9 °F 30.40 in NNE 3.1 mph 3.5 mph 80% 0.00 in
06:04 32.2 °F 26.7 °F 30.40 in North 3.0 mph 3.5 mph 80% 0.00 in
06:09 32.0 °F 26.2 °F 30.41 in NE 5.2 mph 5.8 mph 79% 0.00 in
06:14 31.9 °F 26.1 °F 30.41 in North 5.1 mph 9.2 mph 79% 0.00 in
06:19 31.7 °F 25.9 °F 30.41 in NE 3.2 mph 4.0 mph 79% 0.00 in
06:24 31.6 °F 26.1 °F 30.42 in North 2.5 mph 3.5 mph 80% 0.00 in
06:29 31.8 °F 26.0 °F 30.42 in North 4.0 mph 3.5 mph 79% 0.00 in
06:34 31.9 °F 25.8 °F 30.42 in NNE 3.0 mph 6.9 mph 78% 0.00 in
06:39 32.1 °F 25.7 °F 30.42 in NNW 3.4 mph 4.6 mph 77% 0.00 in
06:44 32.1 °F 25.7 °F 30.42 in North 2.7 mph 3.5 mph 77% 0.00 in
06:49 32.3 °F 25.3 °F 30.42 in NNE 3.0 mph 5.8 mph 75% 0.00 in
06:54 32.1 °F 25.1 °F 30.42 in North 3.9 mph 6.9 mph 75% 0.00 in
06:59 32.1 °F 25.1 °F 30.42 in North 3.7 mph 6.9 mph 75% 0.00 in
07:04 32.1 °F 25.1 °F 30.42 in North 4.2 mph 5.8 mph 75% 0.00 in
07:09 32.0 °F 24.6 °F 30.42 in NNE 4.6 mph 6.9 mph 74% 0.00 in
07:14 31.9 °F 24.9 °F 30.43 in NNE 3.0 mph 5.0 mph 75% 0.00 in
07:19 31.6 °F 24.6 °F 30.43 in NNE 4.2 mph 6.0 mph 75% 0.00 in
07:24 31.6 °F 24.6 °F 30.43 in North 2.9 mph 5.8 mph 75% 0.00 in
07:29 31.6 °F 24.6 °F 30.43 in North 3.0 mph 5.8 mph 75% 0.00 in
07:34 31.5 °F 24.8 °F 30.43 in North 1.6 mph 3.5 mph 76% 0.00 in
07:39 31.4 °F 24.4 °F 30.44 in NNW 2.9 mph 4.6 mph 75% 0.00 in
07:44 31.8 °F 24.8 °F 30.44 in NW 4.9 mph 8.1 mph 75% 0.00 in
07:49 32.0 °F 25.0 °F 30.44 in NNE 4.1 mph 9.2 mph 75% 0.00 in
07:54 32.0 °F 25.0 °F 30.44 in North 3.2 mph 5.8 mph 75% 0.00 in
07:59 32.1 °F 25.1 °F 30.45 in NE 3.5 mph 5.0 mph 75% 0.00 in
08:04 32.3 °F 24.9 °F 30.45 in North 5.0 mph 9.2 mph 74% 0.00 in
08:09 32.6 °F 25.2 °F 30.45 in NNE 4.2 mph 8.1 mph 74% 0.00 in
08:14 32.9 °F 25.2 °F 30.46 in North 5.1 mph 9.2 mph 73% 0.00 in
08:19 33.1 °F 25.4 °F 30.46 in NNE 3.9 mph 5.8 mph 73% 0.00 in
08:24 33.4 °F 25.3 °F 30.46 in NNE 4.7 mph 6.9 mph 72% 0.00 in
08:29 33.6 °F 25.5 °F 30.46 in NNE 3.3 mph 9.2 mph 72% 0.00 in
08:34 34.6 °F 26.5 °F 30.46 in NNE 1.7 mph 3.5 mph 72% 0.00 in
08:39 36.0 °F 27.8 °F 30.46 in North 1.0 mph 2.3 mph 72% 0.00 in
08:44 36.9 °F 27.3 °F 30.46 in NNE 2.3 mph 3.5 mph 68% 0.00 in
08:49 37.4 °F 27.1 °F 30.46 in North 1.3 mph 3.5 mph 66% 0.00 in
08:54 37.5 °F 27.2 °F 30.46 in North 1.5 mph 3.5 mph 66% 0.00 in
08:59 38.2 °F 28.2 °F 30.46 in WNW 0.2 mph 1.2 mph 67% 0.00 in
09:04 39.3 °F 28.5 °F 30.47 in SSW 0.1 mph 1.2 mph 65% 0.00 in
09:09 39.6 °F 28.8 °F 30.47 in SSW 1.5 mph 3.5 mph 65% 0.00 in
09:14 39.9 °F 28.3 °F 30.47 in NE 2.2 mph 5.0 mph 63% 0.00 in
09:19 39.7 °F 28.1 °F 30.47 in NNW 3.0 mph 6.9 mph 63% 0.00 in
09:24 39.3 °F 27.7 °F 30.47 in NNW 4.3 mph 5.8 mph 63% 0.00 in
09:29 39.2 °F 27.7 °F 30.47 in NNE 4.2 mph 5.8 mph 63% 0.00 in
09:34 39.3 °F 27.4 °F 30.47 in NNE 4.6 mph 7.0 mph 62% 0.00 in
09:39 39.2 °F 27.3 °F 30.48 in NNW 4.4 mph 8.1 mph 62% 0.00 in
09:44 39.6 °F 27.2 °F 30.48 in NNW 3.5 mph 5.8 mph 61% 0.00 in
09:49 39.9 °F 27.5 °F 30.48 in NNE 4.7 mph 8.1 mph 61% 0.00 in
09:53 40.1 °F 27.3 °F 30.48 in NNW 4.5 mph 8.1 mph 60% 0.00 in
09:59 40.6 °F 27.4 °F 30.48 in North 3.9 mph 5.8 mph 59% 0.00 in
10:04 41.3 °F 28.4 °F 30.48 in NNE 3.4 mph 4.6 mph 60% 0.00 in
10:09 41.7 °F 28.4 °F 30.48 in North 2.3 mph 4.0 mph 59% 0.00 in
10:14 42.1 °F 27.9 °F 30.48 in North 1.3 mph 3.5 mph 57% 0.00 in
10:19 42.4 °F 27.8 °F 30.49 in NNE 1.5 mph 3.5 mph 56% 0.00 in
10:24 42.8 °F 28.2 °F 30.49 in North 1.4 mph 3.5 mph 56% 0.00 in
10:29 43.3 °F 29.1 °F 30.49 in NNE 0.5 mph 2.3 mph 57% 0.00 in
10:34 44.1 °F 29.8 °F 30.49 in ENE 1.2 mph 2.3 mph 57% 0.00 in
10:39 44.2 °F 29.9 °F 30.49 in NNE 1.0 mph 3.5 mph 57% 0.00 in
10:44 44.4 °F 30.1 °F 30.49 in North 0.8 mph 1.2 mph 57% 0.00 in
10:49 44.7 °F 30.4 °F 30.49 in North 2.3 mph 3.5 mph 57% 0.00 in
10:54 44.9 °F 30.6 °F 30.49 in NNE 0.9 mph 2.3 mph 57% 0.00 in
10:59 45.0 °F 30.2 °F 30.49 in NNE 1.0 mph 2.3 mph 56% 0.00 in
11:04 45.0 °F 30.7 °F 30.49 in NE 2.4 mph 4.6 mph 57% 0.00 in
11:09 45.5 °F 31.6 °F 30.49 in SW 0.6 mph 1.2 mph 58% 0.00 in
11:14 47.0 °F 32.5 °F 30.49 in North 0.2 mph 1.2 mph 57% 0.00 in
11:19 47.9 °F 32.0 °F 30.49 in SE 1.2 mph 4.0 mph 54% 0.00 in
11:24 48.1 °F 31.8 °F 30.49 in North 1.0 mph 3.5 mph 53% 0.00 in
11:29 48.0 °F 30.7 °F 30.49 in North 1.1 mph 3.5 mph 51% 0.00 in
11:34 47.6 °F 30.3 °F 30.49 in SW 1.6 mph 3.5 mph 51% 0.00 in
11:39 48.0 °F 30.7 °F 30.49 in ESE 1.1 mph 3.5 mph 51% 0.00 in
11:44 48.8 °F 30.0 °F 30.49 in SE 1.9 mph 3.5 mph 48% 0.00 in
11:49 48.2 °F 29.9 °F 30.48 in NNE 1.1 mph 2.3 mph 49% 0.00 in
11:54 47.9 °F 29.6 °F 30.49 in WNW 1.2 mph 2.3 mph 49% 0.00 in
11:59 48.9 °F 30.1 °F 30.48 in Calm   1.2 mph 48% 0.00 in
12:04 49.0 °F 25.7 °F 30.48 in NNE 1.2 mph 3.5 mph 40% 0.00 in
12:09 49.1 °F 25.8 °F 30.48 in NNE 1.9 mph 2.3 mph 40% 0.00 in
12:13 49.4 °F 26.7 °F 30.48 in NNE 0.5 mph 4.6 mph 41% 0.00 in
12:19 49.0 °F 25.7 °F 30.48 in NE 1.8 mph 3.5 mph 40% 0.00 in
12:24 48.8 °F 24.3 °F 30.48 in NNE 0.8 mph 1.2 mph 38% 0.00 in
12:29 48.9 °F 23.7 °F 30.48 in North 1.5 mph 3.5 mph 37% 0.00 in
12:34 48.9 °F 25.0 °F 30.47 in North 1.6 mph 2.3 mph 39% 0.00 in
12:39 49.0 °F 25.7 °F 30.47 in WNW 4.0 mph 3.5 mph 40% 0.00 in
12:44 49.1 °F 25.2 °F 30.47 in NNW 2.6 mph 3.5 mph 39% 0.00 in
12:49 49.1 °F 25.8 °F 30.46 in NNE 0.9 mph 2.3 mph 40% 0.00 in
12:54 49.8 °F 25.2 °F 30.46 in NNE 0.8 mph 2.3 mph 38% 0.00 in
12:59 50.2 °F 24.2 °F 30.46 in North 1.2 mph 3.5 mph 36% 0.00 in
13:04 49.6 °F 25.0 °F 30.45 in NW 1.2 mph 2.3 mph 38% 0.00 in
13:09 49.9 °F 25.9 °F 30.45 in NE 1.7 mph 3.5 mph 39% 0.00 in
13:14 50.0 °F 24.7 °F 30.45 in NNE 2.0 mph 5.0 mph 37% 0.00 in
13:19 49.8 °F 24.5 °F 30.45 in WNW 0.4 mph 1.2 mph 37% 0.00 in
13:24 50.2 °F 24.2 °F 30.45 in WNW 1.8 mph 2.3 mph 36% 0.00 in
13:29 50.5 °F 23.8 °F 30.45 in SSW 0.6 mph 1.2 mph 35% 0.00 in
13:34 51.4 °F 23.9 °F 30.44 in ESE 0.6 mph 1.2 mph 34% 0.00 in
13:39 51.2 °F 23.8 °F 30.44 in North 0.6 mph 1.2 mph 34% 0.00 in
13:44 51.7 °F 24.2 °F 30.44 in NNE 1.0 mph 1.2 mph 34% 0.00 in
13:49 51.6 °F 24.8 °F 30.44 in SE 1.0 mph 1.2 mph 35% 0.00 in
13:54 52.6 °F 25.7 °F 30.44 in WNW 0.6 mph 1.2 mph 35% 0.00 in
13:58 52.3 °F 24.0 °F 30.43 in WSW 2.4 mph 3.5 mph 33% 0.00 in
14:04 52.4 °F 22.6 °F 30.43 in WNW 1.6 mph 2.3 mph 31% 0.00 in
14:09 52.7 °F 23.6 °F 30.43 in WNW 1.9 mph 4.6 mph 32% 0.00 in
14:14 53.1 °F 23.2 °F 30.43 in SW 1.1 mph 5.0 mph 31% 0.00 in
14:19 52.8 °F 22.2 °F 30.42 in SW 2.6 mph 3.5 mph 30% 0.00 in
14:24 52.6 °F 23.5 °F 30.43 in West 0.9 mph 1.2 mph 32% 0.00 in
14:29 53.0 °F 23.1 °F 30.42 in South 0.4 mph 2.0 mph 31% 0.00 in
14:34 53.2 °F 22.5 °F 30.42 in SSW 1.0 mph 1.2 mph 30% 0.00 in
14:39 52.9 °F 23.8 °F 30.42 in WNW 0.2 mph 1.2 mph 32% 0.00 in
14:44 53.3 °F 22.6 °F 30.42 in SSW 1.6 mph 2.3 mph 30% 0.00 in
14:49 53.5 °F 22.8 °F 30.42 in West 1.6 mph 2.3 mph 30% 0.00 in
14:54 53.4 °F 22.7 °F 30.42 in WNW 1.2 mph 2.3 mph 30% 0.00 in
14:59 53.2 °F 21.7 °F 30.41 in ENE 0.4 mph 1.2 mph 29% 0.00 in
15:04 52.9 °F 22.3 °F 30.41 in NW 1.2 mph 2.3 mph 30% 0.00 in
15:09 52.9 °F 23.0 °F 30.41 in NW 0.9 mph 2.3 mph 31% 0.00 in
15:14 53.2 °F 21.7 °F 30.41 in WNW 0.4 mph 1.2 mph 29% 0.00 in
15:19 53.4 °F 22.7 °F 30.41 in WSW 0.6 mph 1.2 mph 30% 0.00 in
15:24 54.0 °F 22.4 °F 30.41 in North 0.9 mph 2.3 mph 29% 0.00 in
15:29 54.9 °F 23.2 °F 30.41 in NNW 0.2 mph 1.0 mph 29% 0.00 in
15:34 54.3 °F 21.8 °F 30.41 in ENE 0.8 mph 3.5 mph 28% 0.00 in
15:39 53.8 °F 21.4 °F 30.41 in North 1.0 mph 5.0 mph 28% 0.00 in
15:44 53.1 °F 21.6 °F 30.41 in West 2.1 mph 4.6 mph 29% 0.00 in
15:49 53.4 °F 21.1 °F 30.41 in NNW 1.4 mph 2.3 mph 28% 0.00 in
15:54 53.8 °F 21.4 °F 30.40 in NNW 1.5 mph 2.3 mph 28% 0.00 in
15:59 53.8 °F 22.2 °F 30.41 in WNW 0.4 mph 1.2 mph 29% 0.00 in
16:04 53.5 °F 22.0 °F 30.40 in NW 0.9 mph 2.3 mph 29% 0.00 in
16:09 53.6 °F 22.1 °F 30.40 in NNE 1.2 mph 3.5 mph 29% 0.00 in
16:14 53.6 °F 22.1 °F 30.40 in ESE 0.8 mph 1.2 mph 29% 0.00 in
16:19 53.6 °F 22.9 °F 30.39 in North 1.2 mph 2.3 mph 30% 0.00 in
16:24 53.7 °F 23.0 °F 30.39 in SE 0.8 mph 1.2 mph 30% 0.00 in
Anthen North Phoenix Weather
Compliments of Weather Underground - 2 mb